createdAt,value
2023-03-13T00:01:57.766Z,93.42
2023-03-13T00:04:24.437Z,93.78
2023-03-13T00:06:52.510Z,93.18
2023-03-13T00:09:19.102Z,93.81
2023-03-13T00:11:46.372Z,94.00
2023-03-13T00:14:13.034Z,94.32
2023-03-13T00:16:39.879Z,94.62
2023-03-13T00:19:07.743Z,94.28
2023-03-13T00:21:35.365Z,94.33
2023-03-13T00:24:03.973Z,93.97
2023-03-13T00:26:30.693Z,94.45
2023-03-13T00:28:57.416Z,93.76
2023-03-13T00:31:26.163Z,93.43
2023-03-13T00:33:55.094Z,93.44
2023-03-13T00:36:23.863Z,93.82
2023-03-13T00:38:52.341Z,93.94
2023-03-13T00:41:22.048Z,93.77
2023-03-13T00:43:48.793Z,94.81
2023-03-13T00:46:17.905Z,94.60
2023-03-13T00:48:44.770Z,95.16
2023-03-13T00:51:12.988Z,94.73
2023-03-13T00:53:39.553Z,94.97
2023-03-13T00:56:08.692Z,94.46
2023-03-13T00:58:38.539Z,94.71
2023-03-13T01:01:09.946Z,95.25
2023-03-13T01:03:37.907Z,94.63
2023-03-13T01:06:06.785Z,94.58
2023-03-13T01:08:33.782Z,94.29
2023-03-13T01:11:03.817Z,94.46
2023-03-13T01:13:31.901Z,94.78
2023-03-13T01:16:02.568Z,94.94
2023-03-13T01:18:29.293Z,94.99
2023-03-13T01:20:55.836Z,95.11
2023-03-13T01:23:22.930Z,95.03
2023-03-13T01:25:49.622Z,95.74
2023-03-13T01:28:16.223Z,96.07
2023-03-13T01:30:43.112Z,95.99
2023-03-13T01:33:11.106Z,96.57
2023-03-13T01:35:37.737Z,97.10
2023-03-13T01:38:04.685Z,97.35
2023-03-13T01:40:31.569Z,98.25
2023-03-13T01:43:00.025Z,98.60
2023-03-13T01:45:53.331Z,98.92
2023-03-13T01:48:25.551Z,98.98
2023-03-13T01:50:52.893Z,99.33
2023-03-13T01:53:25.250Z,99.68
2023-03-13T01:55:54.288Z,99.86
2023-03-13T01:58:21.572Z,100.00
2023-03-13T02:00:49.002Z,100.00
2023-03-13T02:03:19.572Z,100.00
2023-03-13T02:05:49.016Z,100.00
2023-03-13T02:08:18.880Z,100.00
2023-03-13T02:10:51.705Z,100.00
2023-03-13T02:13:20.761Z,100.00
2023-03-13T02:15:48.086Z,100.00
2023-03-13T02:18:16.460Z,100.00
2023-03-13T02:20:50.317Z,100.00
2023-03-13T02:23:21.794Z,100.00
2023-03-13T02:25:51.966Z,100.00
2023-03-13T02:28:25.772Z,100.00
2023-03-13T02:30:55.692Z,100.00
2023-03-13T02:33:27.686Z,100.00
2023-03-13T02:35:54.906Z,100.00
2023-03-13T02:38:24.759Z,100.00
2023-03-13T02:40:53.374Z,100.00
2023-03-13T02:43:26.019Z,100.00
2023-03-13T02:46:07.236Z,100.00
2023-03-13T02:48:38.946Z,100.00
2023-03-13T02:51:12.220Z,100.00
2023-03-13T02:53:39.247Z,100.00
2023-03-13T02:56:07.606Z,100.00
2023-03-13T02:58:49.837Z,100.00
2023-03-13T03:01:19.358Z,100.00
2023-03-13T03:03:46.288Z,100.00
2023-03-13T03:06:12.970Z,100.00
2023-03-13T03:08:39.540Z,100.00
2023-03-13T03:11:07.752Z,100.00
2023-03-13T03:13:34.556Z,100.00
2023-03-13T03:16:06.754Z,100.00
2023-03-13T03:18:34.671Z,100.00
2023-03-13T03:21:03.718Z,100.00
2023-03-13T03:23:30.686Z,100.00
2023-03-13T03:25:57.562Z,100.00
2023-03-13T03:28:25.561Z,100.00
2023-03-13T03:30:52.266Z,100.00
2023-03-13T03:33:19.324Z,100.00
2023-03-13T03:35:46.388Z,100.00
2023-03-13T03:38:13.894Z,100.00
2023-03-13T03:40:40.530Z,100.00
2023-03-13T03:43:07.221Z,100.00
2023-03-13T03:45:35.272Z,100.00
2023-03-13T03:48:02.105Z,100.00
2023-03-13T03:50:29.937Z,100.00
2023-03-13T03:53:00.263Z,100.00
2023-03-13T03:55:27.071Z,100.00
2023-03-13T03:57:53.679Z,100.00
2023-03-13T04:00:39.522Z,100.00
2023-03-13T04:03:06.198Z,100.00
2023-03-13T04:05:32.899Z,100.00
2023-03-13T04:07:59.585Z,100.00
2023-03-13T04:10:26.364Z,100.00
2023-03-13T04:12:54.254Z,100.00
2023-03-13T04:15:21.071Z,100.00
2023-03-13T04:17:49.383Z,100.00
2023-03-13T04:20:17.989Z,100.00
2023-03-13T04:22:44.931Z,100.00
2023-03-13T04:25:12.548Z,100.00
2023-03-13T04:27:39.361Z,100.00
2023-03-13T04:30:08.404Z,100.00
2023-03-13T04:32:43.602Z,100.00
2023-03-13T04:35:27.512Z,100.00
2023-03-13T04:38:11.247Z,100.00
2023-03-13T04:40:46.713Z,99.76
2023-03-13T04:43:26.001Z,99.08
2023-03-13T04:46:00.905Z,98.67
2023-03-13T04:48:49.176Z,98.08
2023-03-13T04:51:55.460Z,98.17
2023-03-13T04:54:31.758Z,97.09
2023-03-13T04:57:16.702Z,97.19
2023-03-13T04:59:52.933Z,97.11
2023-03-13T05:02:38.210Z,96.84
2023-03-13T05:05:35.235Z,96.41
2023-03-13T05:08:21.676Z,95.45
2023-03-13T05:11:17.524Z,95.45
2023-03-13T05:13:57.051Z,95.45
2023-03-13T05:16:36.821Z,95.22
2023-03-13T05:19:22.271Z,94.65
2023-03-13T05:22:07.369Z,94.72
2023-03-13T05:24:49.868Z,94.91
2023-03-13T05:27:36.744Z,94.77
2023-03-13T05:30:15.288Z,94.10
2023-03-13T05:33:02.274Z,94.13
2023-03-13T05:35:49.548Z,93.67
2023-03-13T05:38:36.419Z,93.53
2023-03-13T05:41:31.800Z,93.66
2023-03-13T05:43:58.363Z,93.07
2023-03-13T05:46:51.000Z,92.69
2023-03-13T05:49:37.088Z,92.64
2023-03-13T05:52:39.019Z,92.47
2023-03-13T05:55:14.059Z,92.58
2023-03-13T05:57:55.002Z,91.98
2023-03-13T06:00:41.574Z,91.77
2023-03-13T06:03:28.255Z,91.94
2023-03-13T06:05:58.035Z,92.26
2023-03-13T06:08:44.887Z,91.59
2023-03-13T06:11:11.628Z,92.28
2023-03-13T06:13:39.574Z,92.17
2023-03-13T06:16:28.764Z,92.15
2023-03-13T06:19:11.330Z,91.93
2023-03-13T06:21:38.272Z,91.61
2023-03-13T06:24:05.503Z,91.13
2023-03-13T06:26:32.167Z,91.02
2023-03-13T06:29:00.125Z,90.94
2023-03-13T06:31:26.935Z,90.66
2023-03-13T06:33:54.083Z,91.00
2023-03-13T06:36:20.852Z,89.98
2023-03-13T06:38:47.386Z,90.00
2023-03-13T06:41:14.205Z,89.49
2023-03-13T06:43:41.023Z,89.57
2023-03-13T06:46:16.481Z,89.67
2023-03-13T06:48:43.184Z,89.54
2023-03-13T06:51:11.530Z,89.38
2023-03-13T06:53:38.367Z,89.11
2023-03-13T06:56:05.993Z,88.66
2023-03-13T06:58:33.177Z,88.77
2023-03-13T07:01:00.144Z,88.00
2023-03-13T07:03:28.307Z,87.97
2023-03-13T07:05:58.446Z,87.88
2023-03-13T07:08:25.123Z,87.79
2023-03-13T07:10:52.112Z,87.78
2023-03-13T07:13:18.925Z,87.87
2023-03-13T07:15:45.567Z,87.16
2023-03-13T07:18:12.190Z,87.25
2023-03-13T07:20:40.123Z,86.56
2023-03-13T07:23:06.771Z,87.20
2023-03-13T07:25:33.325Z,86.71
2023-03-13T07:27:59.926Z,86.49
2023-03-13T07:30:26.917Z,86.21
2023-03-13T07:32:54.201Z,86.40
2023-03-13T07:35:20.809Z,85.67
2023-03-13T07:37:48.731Z,85.53
2023-03-13T07:40:15.491Z,84.63
2023-03-13T07:42:42.204Z,84.47
2023-03-13T07:45:09.433Z,82.96
2023-03-13T07:47:36.733Z,83.08
2023-03-13T07:50:03.820Z,82.17
2023-03-13T07:52:30.423Z,81.46
2023-03-13T07:54:58.282Z,81.23
2023-03-13T07:57:24.878Z,80.33
2023-03-13T07:59:51.457Z,79.20
2023-03-13T08:02:18.189Z,78.76
2023-03-13T08:04:44.916Z,78.34
2023-03-13T08:07:12.110Z,77.47
2023-03-13T08:09:38.666Z,76.96
2023-03-13T08:12:07.810Z,76.65
2023-03-13T08:14:34.913Z,75.77
2023-03-13T08:17:01.688Z,75.63
2023-03-13T08:19:28.392Z,75.28
2023-03-13T08:21:54.962Z,75.08
2023-03-13T08:24:21.543Z,74.03
2023-03-13T08:26:48.110Z,73.91
2023-03-13T08:29:16.009Z,73.49
2023-03-13T08:31:44.497Z,73.24
2023-03-13T08:34:11.909Z,73.66
2023-03-13T08:36:38.598Z,73.35
2023-03-13T08:39:06.988Z,73.06
2023-03-13T08:41:35.300Z,72.95
2023-03-13T08:44:02.893Z,72.39
2023-03-13T08:46:32.452Z,73.12
2023-03-13T08:48:59.202Z,72.64
2023-03-13T08:51:27.868Z,72.00
2023-03-13T08:53:55.486Z,72.34
2023-03-13T08:56:24.003Z,71.92
2023-03-13T08:58:51.399Z,71.94
2023-03-13T09:01:18.434Z,71.32
2023-03-13T09:03:46.430Z,71.32
2023-03-13T09:06:13.303Z,71.67
2023-03-13T09:08:40.835Z,71.94
2023-03-13T09:11:10.430Z,71.75
2023-03-13T09:13:38.928Z,71.32
2023-03-13T09:16:07.922Z,71.75
2023-03-13T09:18:35.331Z,72.38
2023-03-13T09:21:05.961Z,72.13
2023-03-13T09:23:32.508Z,72.32
2023-03-13T09:25:59.026Z,72.81
2023-03-13T09:28:26.629Z,72.71
2023-03-13T09:30:54.159Z,72.41
2023-03-13T09:33:22.163Z,72.75
2023-03-13T09:35:48.709Z,72.76
2023-03-13T09:38:16.709Z,72.78
2023-03-13T09:40:59.824Z,72.96
2023-03-13T09:43:40.466Z,72.99
2023-03-13T09:46:13.588Z,73.15
2023-03-13T09:48:45.000Z,73.92
2023-03-13T09:51:17.934Z,74.07
2023-03-13T09:53:53.043Z,74.07
2023-03-13T09:56:24.060Z,75.10
2023-03-13T09:58:55.382Z,75.85
2023-03-13T10:01:28.325Z,76.73
2023-03-13T10:04:02.628Z,77.08
2023-03-13T10:06:35.449Z,77.61
2023-03-13T10:09:05.808Z,78.10
2023-03-13T10:11:42.517Z,78.79
2023-03-13T10:14:14.306Z,78.56
2023-03-13T10:16:45.877Z,79.08
2023-03-13T10:19:15.883Z,79.78
2023-03-13T10:21:45.026Z,79.53
2023-03-13T10:24:19.004Z,79.41
2023-03-13T10:26:45.717Z,79.82
2023-03-13T10:29:22.803Z,80.18
2023-03-13T10:31:56.466Z,79.95
2023-03-13T10:34:23.942Z,80.12
2023-03-13T10:36:56.521Z,79.90
2023-03-13T10:39:27.492Z,80.42
2023-03-13T10:41:59.577Z,80.68
2023-03-13T10:44:32.105Z,80.12
2023-03-13T10:47:00.743Z,80.89
2023-03-13T10:49:27.672Z,81.13
2023-03-13T10:51:56.153Z,81.63
2023-03-13T10:54:26.066Z,82.10
2023-03-13T10:57:07.964Z,81.49
2023-03-13T10:59:39.604Z,81.30
2023-03-13T11:02:22.697Z,81.16
2023-03-13T11:04:49.488Z,80.94
2023-03-13T11:07:21.217Z,80.99
2023-03-13T11:09:57.140Z,81.12
2023-03-13T11:12:23.931Z,81.02
2023-03-13T11:14:57.303Z,80.69
2023-03-13T11:17:32.750Z,80.19
2023-03-13T11:20:08.296Z,81.53
2023-03-13T11:22:49.416Z,81.91
2023-03-13T11:25:23.221Z,81.33
2023-03-13T11:28:02.973Z,82.73
2023-03-13T11:30:51.698Z,83.53
2023-03-13T11:33:28.754Z,83.53
2023-03-13T11:36:01.390Z,83.30
2023-03-13T11:38:32.692Z,82.40
2023-03-13T11:41:12.001Z,83.88
2023-03-13T11:43:52.158Z,81.30
2023-03-13T11:46:29.600Z,83.31
2023-03-13T11:49:16.511Z,79.95
2023-03-13T11:51:58.381Z,79.54
2023-03-13T11:54:32.433Z,77.20
2023-03-13T11:57:07.016Z,76.77
2023-03-13T11:59:41.927Z,74.49
2023-03-13T12:02:18.799Z,73.56
2023-03-13T12:04:50.376Z,72.78
2023-03-13T12:07:21.090Z,73.36
2023-03-13T12:09:51.763Z,72.84
2023-03-13T12:12:30.102Z,71.76
2023-03-13T12:14:59.924Z,69.24
2023-03-13T12:17:32.980Z,69.66
2023-03-13T12:20:04.134Z,70.13
2023-03-13T12:22:36.105Z,68.96
2023-03-13T12:25:10.199Z,67.86
2023-03-13T12:27:42.865Z,67.28
2023-03-13T12:30:22.314Z,66.61
2023-03-13T12:32:58.111Z,66.92
2023-03-13T12:35:27.307Z,65.69
2023-03-13T12:38:01.785Z,65.43
2023-03-13T12:40:38.050Z,66.31
2023-03-13T12:43:12.759Z,65.14
2023-03-13T12:46:04.532Z,65.90
2023-03-13T12:48:51.905Z,66.50
2023-03-13T12:51:34.545Z,66.59
2023-03-13T12:54:27.413Z,67.08
2023-03-13T12:57:09.210Z,66.03
2023-03-13T12:59:38.860Z,67.13
2023-03-13T13:02:15.696Z,67.08
2023-03-13T13:04:45.815Z,66.99
2023-03-13T13:07:23.690Z,67.09
2023-03-13T13:10:03.573Z,67.08
2023-03-13T13:12:30.740Z,67.26
2023-03-13T13:15:02.987Z,67.48
2023-03-13T13:17:39.309Z,67.93
2023-03-13T13:20:38.206Z,68.24
2023-03-13T13:23:32.800Z,69.01
2023-03-13T13:26:47.294Z,69.41
2023-03-13T13:29:56.377Z,69.40
2023-03-13T13:32:41.705Z,69.63
2023-03-13T13:35:26.989Z,70.01
2023-03-13T13:38:13.944Z,70.25
2023-03-13T13:40:40.654Z,69.29
2023-03-13T13:43:22.306Z,69.28
2023-03-13T13:45:58.338Z,67.90
2023-03-13T13:48:31.314Z,67.32
2023-03-13T13:51:23.714Z,66.76
2023-03-13T13:53:56.159Z,66.63
2023-03-13T13:56:33.757Z,66.65
2023-03-13T13:59:06.560Z,67.37
2023-03-13T14:01:34.157Z,66.95
2023-03-13T14:04:11.367Z,67.84
2023-03-13T14:06:39.239Z,66.53
2023-03-13T14:09:17.092Z,66.51
2023-03-13T14:11:43.931Z,66.83
2023-03-13T14:14:14.281Z,67.22
2023-03-13T14:16:44.496Z,67.50
2023-03-13T14:19:24.986Z,66.48
2023-03-13T14:21:57.244Z,66.62
2023-03-13T14:24:23.931Z,66.59
2023-03-13T14:26:50.481Z,66.73
2023-03-13T14:29:18.722Z,67.05
2023-03-13T14:31:51.455Z,67.63
2023-03-13T14:34:18.251Z,66.85
2023-03-13T14:36:50.502Z,67.09
2023-03-13T14:39:19.973Z,67.43
2023-03-13T14:41:48.461Z,67.42
2023-03-13T14:44:22.236Z,66.99
2023-03-13T14:46:49.362Z,66.94
2023-03-13T14:49:19.698Z,66.84
2023-03-13T14:51:49.792Z,67.53
2023-03-13T14:54:30.215Z,72.99
2023-03-13T14:57:05.828Z,73.74
2023-03-13T14:59:32.806Z,74.29
2023-03-13T15:02:00.519Z,74.46
2023-03-13T15:04:48.107Z,74.44
2023-03-13T15:07:14.710Z,74.41
2023-03-13T15:09:43.896Z,74.18
2023-03-13T15:12:14.089Z,73.76
2023-03-13T15:14:44.902Z,73.52
2023-03-13T15:17:18.117Z,73.92
2023-03-13T15:19:49.190Z,74.05
2023-03-13T15:22:17.016Z,73.81
2023-03-13T15:24:59.649Z,73.37
2023-03-13T15:27:31.955Z,73.61
2023-03-13T15:29:58.531Z,71.37
2023-03-13T15:32:27.812Z,69.89
2023-03-13T15:34:55.276Z,67.03
2023-03-13T15:37:22.188Z,65.83
2023-03-13T15:39:50.081Z,63.23
2023-03-13T15:42:16.741Z,62.32
2023-03-13T15:44:43.558Z,61.85
2023-03-13T15:47:11.809Z,57.30
2023-03-13T15:49:38.675Z,57.99
2023-03-13T15:52:14.305Z,56.58
2023-03-13T15:54:40.942Z,55.25
2023-03-13T15:57:12.066Z,55.00
2023-03-13T15:59:38.685Z,54.71
2023-03-13T16:02:13.140Z,55.05
2023-03-13T16:04:39.829Z,53.02
2023-03-13T16:07:09.798Z,51.72
2023-03-13T16:09:36.658Z,52.42
2023-03-13T16:12:03.462Z,51.48
2023-03-13T16:14:31.518Z,51.64
2023-03-13T16:16:58.276Z,52.32
2023-03-13T16:19:25.133Z,52.10
2023-03-13T16:21:51.662Z,51.79
2023-03-13T16:24:18.327Z,50.75
2023-03-13T16:26:45.121Z,49.92
2023-03-13T16:29:12.252Z,50.39
2023-03-13T16:31:40.316Z,49.20
2023-03-13T16:34:07.628Z,50.18
2023-03-13T16:36:35.785Z,48.67
2023-03-13T16:39:05.045Z,48.38
2023-03-13T16:41:32.009Z,49.54
2023-03-13T16:43:58.802Z,49.65
2023-03-13T16:46:29.984Z,49.25
2023-03-13T16:48:57.965Z,49.56
2023-03-13T16:51:26.583Z,49.55
2023-03-13T16:53:54.573Z,49.10
2023-03-13T16:56:25.734Z,49.63
2023-03-13T16:58:53.424Z,50.60
2023-03-13T17:01:20.097Z,50.57
2023-03-13T17:03:47.196Z,50.67
2023-03-13T17:06:20.042Z,51.36
2023-03-13T17:08:46.711Z,51.47
2023-03-13T17:11:15.968Z,52.46
2023-03-13T17:13:45.865Z,53.44
2023-03-13T17:16:14.530Z,53.88
2023-03-13T17:18:41.588Z,53.80
2023-03-13T17:21:12.477Z,53.79
2023-03-13T17:23:40.753Z,54.57
2023-03-13T17:26:20.082Z,54.83
2023-03-13T17:28:48.127Z,55.43
2023-03-13T17:31:15.858Z,55.20
2023-03-13T17:33:42.488Z,55.62
2023-03-13T17:36:18.101Z,55.55
2023-03-13T17:38:47.124Z,55.79
2023-03-13T17:41:16.024Z,55.89
2023-03-13T17:43:43.168Z,56.31
2023-03-13T17:46:19.088Z,56.26
2023-03-13T17:48:47.740Z,56.64
2023-03-13T17:51:17.193Z,57.01
2023-03-13T17:53:43.866Z,57.13
2023-03-13T17:56:17.490Z,57.22
2023-03-13T17:58:44.178Z,57.47
2023-03-13T18:01:14.433Z,57.83
2023-03-13T18:03:41.666Z,58.61
2023-03-13T18:06:18.747Z,58.85
2023-03-13T18:08:45.533Z,59.76
2023-03-13T18:11:12.030Z,60.40
2023-03-13T18:13:39.950Z,61.08
2023-03-13T18:16:17.735Z,61.21
2023-03-13T18:18:44.429Z,61.41
2023-03-13T18:21:11.009Z,61.96
2023-03-13T18:23:37.629Z,62.91
2023-03-13T18:26:27.469Z,63.26
2023-03-13T18:28:55.484Z,63.82
2023-03-13T18:31:22.046Z,64.16
2023-03-13T18:33:48.909Z,64.49
2023-03-13T18:36:17.809Z,65.25
2023-03-13T18:38:44.928Z,65.58
2023-03-13T18:41:12.024Z,65.54
2023-03-13T18:43:38.760Z,66.79
2023-03-13T18:46:11.255Z,67.87
2023-03-13T18:48:37.954Z,68.30
2023-03-13T18:51:04.658Z,68.41
2023-03-13T18:53:31.272Z,67.53
2023-03-13T18:56:05.810Z,66.84
2023-03-13T18:58:32.482Z,66.65
2023-03-13T19:00:59.012Z,67.34
2023-03-13T19:03:26.985Z,67.71
2023-03-13T19:05:53.528Z,68.03
2023-03-13T19:08:20.130Z,67.76
2023-03-13T19:10:47.016Z,67.31
2023-03-13T19:13:13.677Z,67.95
2023-03-13T19:15:40.209Z,67.16
2023-03-13T19:18:11.515Z,66.99
2023-03-13T19:20:39.445Z,67.41
2023-03-13T19:23:05.992Z,67.42
2023-03-13T19:25:32.694Z,67.06
2023-03-13T19:27:59.213Z,68.15
2023-03-13T19:30:26.224Z,66.47
2023-03-13T19:32:52.843Z,67.25
2023-03-13T19:35:19.591Z,66.20
2023-03-13T19:37:47.860Z,66.05
2023-03-13T19:40:19.727Z,66.21
2023-03-13T19:42:46.356Z,67.22
2023-03-13T19:45:13.584Z,67.72
2023-03-13T19:47:40.227Z,68.33
2023-03-13T19:50:15.624Z,68.29
2023-03-13T19:52:42.927Z,68.81
2023-03-13T19:55:11.379Z,69.33
2023-03-13T19:57:37.974Z,69.67
2023-03-13T20:00:06.379Z,70.18
2023-03-13T20:02:38.820Z,70.36
2023-03-13T20:05:08.420Z,70.97
2023-03-13T20:07:35.615Z,70.65
2023-03-13T20:10:02.192Z,70.76
2023-03-13T20:12:30.077Z,70.98
2023-03-13T20:14:56.661Z,71.20
2023-03-13T20:17:23.186Z,71.83
2023-03-13T20:19:50.142Z,72.07
2023-03-13T20:22:16.679Z,71.92
2023-03-13T20:24:43.278Z,71.37
2023-03-13T20:27:09.989Z,71.58
2023-03-13T20:29:37.941Z,71.64
2023-03-13T20:32:04.777Z,72.38
2023-03-13T20:34:32.205Z,72.66
2023-03-13T20:36:58.769Z,73.04
2023-03-13T20:39:26.089Z,73.46
2023-03-13T20:41:53.342Z,74.66
2023-03-13T20:44:19.898Z,74.66
2023-03-13T20:46:48.124Z,74.90
2023-03-13T20:49:15.022Z,75.46
2023-03-13T20:51:41.944Z,75.74
2023-03-13T20:54:08.771Z,76.14
2023-03-13T20:56:35.341Z,76.66
2023-03-13T20:59:02.027Z,76.42
2023-03-13T21:01:29.850Z,76.60
2023-03-13T21:03:59.420Z,76.07
2023-03-13T21:06:25.976Z,75.98
2023-03-13T21:08:52.575Z,75.98
2023-03-13T21:11:21.084Z,76.35
2023-03-13T21:13:48.407Z,76.59
2023-03-13T21:16:16.299Z,77.34
2023-03-13T21:18:42.970Z,77.93
2023-03-13T21:21:12.649Z,78.20
2023-03-13T21:23:39.216Z,78.64
2023-03-13T21:26:06.068Z,79.27
2023-03-13T21:28:32.915Z,79.46
2023-03-13T21:31:07.829Z,80.13
2023-03-13T21:33:34.822Z,80.68
2023-03-13T21:36:01.658Z,81.20
2023-03-13T21:38:30.144Z,81.52
2023-03-13T21:40:56.677Z,81.25
2023-03-13T21:43:23.273Z,80.97
2023-03-13T21:45:49.954Z,80.73
2023-03-13T21:48:16.557Z,79.93
2023-03-13T21:50:43.253Z,79.47
2023-03-13T21:53:09.888Z,78.92
2023-03-13T21:55:37.872Z,78.58
2023-03-13T21:58:04.511Z,78.69
2023-03-13T22:00:32.855Z,77.91
2023-03-13T22:03:01.054Z,77.81
2023-03-13T22:05:27.691Z,77.39
2023-03-13T22:07:54.321Z,76.52
2023-03-13T22:10:20.930Z,76.81
2023-03-13T22:12:49.121Z,75.72
2023-03-13T22:15:15.836Z,75.74
2023-03-13T22:17:42.459Z,75.25
2023-03-13T22:20:10.395Z,75.13
2023-03-13T22:22:37.073Z,74.97
2023-03-13T22:25:04.308Z,75.05
2023-03-13T22:27:30.903Z,74.78
2023-03-13T22:29:58.840Z,74.74
2023-03-13T22:32:26.522Z,74.90
2023-03-13T22:34:53.182Z,74.86
2023-03-13T22:37:19.928Z,74.70
2023-03-13T22:39:46.475Z,74.64
2023-03-13T22:42:13.079Z,75.07
2023-03-13T22:44:39.655Z,74.82
2023-03-13T22:47:07.732Z,74.83
2023-03-13T22:49:34.270Z,74.95
2023-03-13T22:52:00.986Z,75.28
2023-03-13T22:54:27.514Z,75.33
2023-03-13T22:56:54.137Z,75.70
2023-03-13T22:59:20.806Z,76.19
2023-03-13T23:01:47.514Z,76.38
2023-03-13T23:04:15.388Z,76.51
2023-03-13T23:06:42.113Z,76.79
2023-03-13T23:09:08.661Z,77.14
2023-03-13T23:11:35.368Z,77.78
2023-03-13T23:14:02.910Z,77.68
2023-03-13T23:16:30.095Z,77.96
2023-03-13T23:18:56.803Z,78.44
2023-03-13T23:21:24.930Z,78.52
2023-03-13T23:23:53.667Z,78.80
2023-03-13T23:26:20.456Z,80.09
2023-03-13T23:28:47.405Z,79.88
2023-03-13T23:31:16.021Z,79.82
2023-03-13T23:33:43.362Z,80.15
2023-03-13T23:36:12.207Z,80.30
2023-03-13T23:38:40.270Z,80.19
2023-03-13T23:41:07.922Z,80.52
2023-03-13T23:43:34.797Z,80.50
2023-03-13T23:46:01.687Z,80.52
2023-03-13T23:48:28.390Z,80.44
2023-03-13T23:50:55.263Z,80.77
2023-03-13T23:53:24.212Z,80.60
2023-03-13T23:56:00.400Z,80.56
2023-03-13T23:58:28.518Z,80.14
